Flugplatz Geilsheim (UL)

Hier findest Du alle Informationen zum Flugplatz Geilsheim (UL).

Informationen für Piloten zum Flugplatz Geilsheim

Hier findest Du alle relevanten Informationen, die Du als Pilot benötigst, um Geilsheim anzufliegen.

Flugplatz: Geilsheim ICAO-Code: UL Flugplatz
Frequenz Turm: 123.425 Mhz GAFOR Gebiet: 56
Frequenz Ground: 123.425 Mhz Mogas: nein
Platzrunde: S 2000 ft Landegebühr: -
Platzhöhe: Sunrise: 04:16 Uhr UTC
Pisten: 09/27 - 375 m x 25 m, GRAS Sunset: 18:24 Uhr UTC

Mitglieder, die in Geilsheim fliegen

Flugwetter am Flugplatz Geilsheim

Die METAR Information stammen aus EDDN (61.03 km entfernt).

METAR Code:
2019/08/19 07:20
EDDN 190720Z 18005KT 140V220 9999 SCT010 BKN040 18/17 Q1017 TEMPO BKN010

Flugschulen am Flugplatz Geilsheim

Am Flugplatz Geilsheim gibt es leider keine Flugschule.

Benachbarte Flugplätze und Flugschulen

Es gibt 22 weitere Flugplätze in einem Umkreis von 50 km um den Flugplatz Geilsheim.

Jetzt anmelden

Passwort vergessen

Umfrage Archiv

Werdet Ihr Euer UL im Zuge der 600 kg MTOW auflasten lassen?

Ja, bei Kosten bis max. 5.000 Euro
43.5 %
Nein
32.2 %
Ja, bei Kosten bis max. 7.500 Euro
8.7 %
Ja, bei Kosten bis max. 10.000 Euro
7.8 %
Ja, unabhängig von den Kosten
7.8 %
Stimmen: 115 | Diskussion
Anzeige: Roland Aircraft
Statistik Alle Mitglieder

Aktuell sind 104 Besucher online, davon 1 Mitglied und 103 Gäste.


Mitglieder online:
dmkoe 

Anzeige: VFR Sprechfunk Simulator


Anzeige: Pocket FMS